Terminal Aerodrome Forecast
Issued by NWS

Home | Current Version | Previous Version | Text Only | Print | Product List | Glossary On
Versions: 1 2 3 4 5 6 7 8 9 10 11 12 13 14 15 16 17
000
FTUS43 KIND 290520
TAFBMG
TAF
KBMG 290520Z 2906/3006 19006KT P6SM BKN150
     FM290900 20004KT 4SM BR SCT080
     FM291400 22006KT P6SM BKN035
     FM291800 25007KT P6SM BKN040
     FM292200 27007G16KT P6SM BKN040
     FM300200 29003KT P6SM SCT040 BKN200
      AMD LTD TO CLD VIS AND WIND TIL 291300=

USA.gov is the U.S. government's official web portal to all federal, state and local government web resources and services.